Time;durP1;ratioP1;P1;durP2;ratioP2;P2;SDS_P1;SDS_P2;PMS_P1;PMS_P2;Temp;Humidity;BMP_temperature;BMP_pressure;BME280_temperature;BME280_humidity;BME280_pressure;Samples;Min_cycle;Max_cycle;Signal;HPM_P1;HPM_P2
2021/07/17 00:01:28;;;;;;;20.03;11.53;;;;;;;;;;5050619;28;20372;-56
2021/07/17 00:03:54;;;;;;;27.50;13.30;;;;;;;;;;5050581;28;20417;-56
2021/07/17 00:06:20;;;;;;;25.13;12.50;;;;;;;;;;5050442;28;20415;-56
2021/07/17 00:08:46;;;;;;;20.40;12.80;;;;;;;;;;5050717;28;20405;-56
2021/07/17 00:11:14;;;;;;;21.20;13.53;;;;;;;;;;5050422;28;20384;-56
2021/07/17 00:13:39;;;;;;;23.30;12.50;;;;;;;;;;5050518;28;20414;-56
2021/07/17 00:16:06;;;;;;;27.77;14.13;;;;;;;;;;5050405;28;20472;-56
2021/07/17 00:18:31;;;;;;;25.70;14.13;;;;;;;;;;5050459;28;20458;-56
2021/07/17 00:20:57;;;;;;;18.37;12.67;;;;;;;;;;5050236;28;20391;-56
2021/07/17 00:23:23;;;;;;;22.07;14.13;;;;;;;;;;5050741;28;20386;-56
2021/07/17 00:25:53;;;;;;;19.27;13.03;;;;;;;;;;5050387;28;20484;-56
2021/07/17 00:28:20;;;;;;;24.80;13.93;;;;;;;;;;5050448;28;20949;-56
2021/07/17 00:30:47;;;;;;;22.10;15.10;;;;;;;;;;5050166;28;20894;-56
2021/07/17 00:33:13;;;;;;;29.90;14.77;;;;;;;;;;5050373;28;20372;-55
2021/07/17 00:35:39;;;;;;;24.37;13.43;;;;;;;;;;5050178;28;20371;-56
2021/07/17 00:38:05;;;;;;;20.83;14.03;;;;;;;;;;5050416;28;20438;-56
2021/07/17 00:40:33;;;;;;;28.50;13.50;;;;;;;;;;5050130;28;20413;-55
2021/07/17 00:42:59;;;;;;;32.20;14.13;;;;;;;;;;5050769;28;20460;-56
2021/07/17 00:45:25;;;;;;;24.10;15.17;;;;;;;;;;5036238;28;20429;-55
2021/07/17 00:47:51;;;;;;;28.33;14.53;;;;;;;;;;5054285;28;20410;-56
2021/07/17 00:50:18;;;;;;;21.37;14.10;;;;;;;;;;5054059;28;20867;-56
2021/07/17 00:52:44;;;;;;;26.67;13.47;;;;;;;;;;5054158;28;20450;-56
2021/07/17 00:55:11;;;;;;;34.07;14.77;;;;;;;;;;5054051;28;20391;-56
2021/07/17 00:57:37;;;;;;;28.70;15.50;;;;;;;;;;5054016;28;20376;-57
2021/07/17 01:00:05;;;;;;;26.53;13.70;;;;;;;;;;5053823;28;20423;-56
2021/07/17 01:02:35;;;;;;;26.10;13.87;;;;;;;;;;5053158;28;20436;-56
2021/07/17 01:05:01;;;;;;;22.60;13.53;;;;;;;;;;5053368;28;20467;-56
2021/07/17 01:07:27;;;;;;;32.20;15.03;;;;;;;;;;5053728;28;20410;-55
2021/07/17 01:09:53;;;;;;;25.17;13.73;;;;;;;;;;5053757;28;20485;-56
2021/07/17 01:12:20;;;;;;;23.50;15.07;;;;;;;;;;5053684;28;20405;-55
2021/07/17 01:14:46;;;;;;;31.23;15.13;;;;;;;;;;5053657;28;20774;-56
2021/07/17 01:17:13;;;;;;;28.90;15.80;;;;;;;;;;5053558;28;20375;-56
2021/07/17 01:19:39;;;;;;;30.87;14.20;;;;;;;;;;5053535;28;20450;-55
2021/07/17 01:22:05;;;;;;;28.83;15.67;;;;;;;;;;5053583;28;20562;-56
2021/07/17 01:24:32;;;;;;;26.50;15.60;;;;;;;;;;5053585;28;20499;-56
2021/07/17 01:26:58;;;;;;;24.20;14.70;;;;;;;;;;5053454;28;20460;-56
2021/07/17 01:29:24;;;;;;;32.50;15.57;;;;;;;;;;5053381;28;20399;-56
2021/07/17 01:31:50;;;;;;;25.17;16.07;;;;;;;;;;5053360;28;20901;-56
2021/07/17 01:34:17;;;;;;;25.83;15.37;;;;;;;;;;5053615;28;20643;-56
2021/07/17 01:36:43;;;;;;;36.33;14.60;;;;;;;;;;5053462;28;20917;-56
2021/07/17 01:39:09;;;;;;;28.70;14.43;;;;;;;;;;5053344;28;20913;-56
2021/07/17 01:41:35;;;;;;;23.03;14.00;;;;;;;;;;5053590;28;20380;-56
2021/07/17 01:44:01;;;;;;;28.60;14.57;;;;;;;;;;5053430;28;20425;-56
2021/07/17 01:46:27;;;;;;;30.77;14.37;;;;;;;;;;5053417;28;20397;-56
2021/07/17 01:48:54;;;;;;;22.57;13.67;;;;;;;;;;5053355;28;20380;-56
2021/07/17 01:51:20;;;;;;;26.03;14.77;;;;;;;;;;5053202;28;20372;-56
2021/07/17 01:53:47;;;;;;;27.87;13.90;;;;;;;;;;5052661;28;20428;-56
2021/07/17 01:56:13;;;;;;;30.67;13.20;;;;;;;;;;5053207;28;20384;-56
2021/07/17 01:58:39;;;;;;;30.90;14.30;;;;;;;;;;5052874;28;20449;-56
2021/07/17 02:01:05;;;;;;;22.20;13.17;;;;;;;;;;5052756;28;20474;-56
2021/07/17 02:03:31;;;;;;;29.77;14.17;;;;;;;;;;5052744;28;20434;-56
2021/07/17 02:05:58;;;;;;;27.30;14.03;;;;;;;;;;5052900;28;20372;-56
2021/07/17 02:08:27;;;;;;;32.30;14.47;;;;;;;;;;5052804;28;20742;-55
2021/07/17 02:10:52;;;;;;;29.13;13.17;;;;;;;;;;5052712;28;20405;-56
2021/07/17 02:13:19;;;;;;;26.00;13.60;;;;;;;;;;5052574;28;20407;-56
2021/07/17 02:15:46;;;;;;;22.80;14.40;;;;;;;;;;5052660;28;20397;-56
2021/07/17 02:18:13;;;;;;;31.00;13.67;;;;;;;;;;5052642;28;20432;-56
2021/07/17 02:20:40;;;;;;;29.30;13.87;;;;;;;;;;5052391;28;20372;-57
2021/07/17 02:23:05;;;;;;;26.43;13.10;;;;;;;;;;5052465;28;20497;-56
2021/07/17 02:25:32;;;;;;;31.30;14.37;;;;;;;;;;5052448;28;20445;-56
2021/07/17 02:27:58;;;;;;;34.67;14.87;;;;;;;;;;5052303;28;20492;-56
2021/07/17 02:30:24;;;;;;;22.43;13.20;;;;;;;;;;5052101;28;20390;-56
2021/07/17 02:32:50;;;;;;;22.13;13.37;;;;;;;;;;5052366;28;20492;-56
2021/07/17 02:35:16;;;;;;;28.77;13.63;;;;;;;;;;5052157;28;20425;-56
2021/07/17 02:37:42;;;;;;;29.30;13.83;;;;;;;;;;5052198;28;20390;-56
2021/07/17 02:40:09;;;;;;;39.67;14.70;;;;;;;;;;5051912;28;21081;-56
2021/07/17 02:42:35;;;;;;;26.03;14.30;;;;;;;;;;5052066;28;20372;-56
2021/07/17 02:45:01;;;;;;;22.23;13.07;;;;;;;;;;5052183;28;20449;-56
2021/07/17 02:47:27;;;;;;;22.13;13.03;;;;;;;;;;5052050;28;20900;-56
2021/07/17 02:49:53;;;;;;;32.00;14.27;;;;;;;;;;5051808;28;20550;-56
2021/07/17 02:52:19;;;;;;;29.07;14.20;;;;;;;;;;5051965;28;20903;-56
2021/07/17 02:54:45;;;;;;;29.17;14.63;;;;;;;;;;5051737;28;20429;-56
2021/07/17 02:57:11;;;;;;;30.70;13.17;;;;;;;;;;5051688;28;20418;-56
2021/07/17 02:59:37;;;;;;;27.97;15.33;;;;;;;;;;5051508;28;20456;-56
2021/07/17 03:02:03;;;;;;;33.47;16.03;;;;;;;;;;5051777;28;20475;-56
2021/07/17 03:04:29;;;;;;;26.67;13.20;;;;;;;;;;5051481;28;20440;-56
2021/07/17 03:06:55;;;;;;;32.97;13.10;;;;;;;;;;5050947;28;20413;-56
2021/07/17 03:09:21;;;;;;;24.97;14.73;;;;;;;;;;5051424;28;20406;-55
2021/07/17 03:11:47;;;;;;;22.90;12.93;;;;;;;;;;5051717;28;20468;-56
2021/07/17 03:14:13;;;;;;;30.27;14.93;;;;;;;;;;5051368;28;20421;-56
2021/07/17 03:16:39;;;;;;;23.93;14.40;;;;;;;;;;5051472;28;20913;-56
2021/07/17 03:19:05;;;;;;;34.03;14.10;;;;;;;;;;5051344;28;20455;-56
2021/07/17 03:21:31;;;;;;;38.43;13.77;;;;;;;;;;5051261;28;20412;-56
2021/07/17 03:23:57;;;;;;;33.07;13.80;;;;;;;;;;5051298;28;20464;-56
2021/07/17 03:26:24;;;;;;;21.20;12.57;;;;;;;;;;5051090;28;20823;-56
2021/07/17 03:28:50;;;;;;;32.90;13.97;;;;;;;;;;5051241;28;20471;-56
2021/07/17 03:31:16;;;;;;;27.73;13.20;;;;;;;;;;5051006;28;20488;-56
2021/07/17 03:33:42;;;;;;;21.33;13.07;;;;;;;;;;5051177;28;20434;-56
2021/07/17 03:36:08;;;;;;;23.00;13.07;;;;;;;;;;5051030;28;20415;-56
2021/07/17 03:38:34;;;;;;;25.53;12.13;;;;;;;;;;5051075;28;20427;-56
2021/07/17 03:41:00;;;;;;;20.07;13.20;;;;;;;;;;5050774;28;20868;-56
2021/07/17 03:43:26;;;;;;;21.83;13.33;;;;;;;;;;5051285;28;20864;-56
2021/07/17 03:45:52;;;;;;;26.07;13.60;;;;;;;;;;5051128;28;20421;-56
2021/07/17 03:48:18;;;;;;;24.60;13.50;;;;;;;;;;5051156;28;20419;-56
2021/07/17 03:50:44;;;;;;;24.30;12.73;;;;;;;;;;5051046;28;20886;-56
2021/07/17 03:53:11;;;;;;;26.67;13.17;;;;;;;;;;5051189;28;20981;-56
2021/07/17 03:55:37;;;;;;;21.67;12.83;;;;;;;;;;5051011;28;20368;-56
2021/07/17 03:58:03;;;;;;;21.77;12.00;;;;;;;;;;5051091;28;20460;-56
2021/07/17 04:00:29;;;;;;;17.80;12.53;;;;;;;;;;5050668;28;20469;-56
2021/07/17 04:02:54;;;;;;;19.97;13.67;;;;;;;;;;5050882;28;20398;-56
2021/07/17 04:05:21;;;;;;;26.40;13.37;;;;;;;;;;5092399;22;20496;-48
2021/07/17 04:07:47;;;;;;;27.30;12.53;;;;;;;;;;5050795;28;20397;-47
2021/07/17 04:10:14;;;;;;;19.20;12.13;;;;;;;;;;5050560;28;20379;-47
2021/07/17 04:12:40;;;;;;;24.80;13.17;;;;;;;;;;5050822;28;21175;-47
2021/07/17 04:15:07;;;;;;;30.10;13.53;;;;;;;;;;5043214;28;20396;-48
2021/07/17 04:17:33;;;;;;;22.47;12.80;;;;;;;;;;5030628;28;20599;-48
2021/07/17 04:19:59;;;;;;;20.87;14.03;;;;;;;;;;5030589;28;20500;-48
2021/07/17 04:22:25;;;;;;;22.13;12.47;;;;;;;;;;5030695;28;20394;-48
2021/07/17 04:24:51;;;;;;;23.80;11.83;;;;;;;;;;5030594;28;20425;-47
2021/07/17 04:27:17;;;;;;;23.87;12.80;;;;;;;;;;5030458;28;20919;-49
2021/07/17 04:29:43;;;;;;;22.43;12.17;;;;;;;;;;5030526;28;20852;-48
2021/07/17 04:32:09;;;;;;;29.03;13.47;;;;;;;;;;5030514;28;20419;-47
2021/07/17 04:34:35;;;;;;;36.03;12.97;;;;;;;;;;5030532;28;21027;-48
2021/07/17 04:37:01;;;;;;;25.43;12.43;;;;;;;;;;5030400;28;20380;-47
2021/07/17 04:39:27;;;;;;;27.07;11.57;;;;;;;;;;5030275;28;20431;-50
2021/07/17 04:41:53;;;;;;;30.50;12.77;;;;;;;;;;5030304;28;20417;-47
2021/07/17 04:44:19;;;;;;;19.70;12.93;;;;;;;;;;5030530;28;20379;-48
2021/07/17 04:46:44;;;;;;;18.40;13.23;;;;;;;;;;5030459;28;20384;-48
2021/07/17 04:49:10;;;;;;;22.97;13.00;;;;;;;;;;5030347;28;20406;-48
2021/07/17 04:51:36;;;;;;;20.03;12.13;;;;;;;;;;5030294;28;20381;-48
2021/07/17 04:54:02;;;;;;;29.53;13.73;;;;;;;;;;5030394;28;20410;-47
2021/07/17 04:56:28;;;;;;;20.03;11.73;;;;;;;;;;5028722;28;20431;-47
2021/07/17 04:58:54;;;;;;;23.03;13.00;;;;;;;;;;5030300;28;20455;-47
2021/07/17 05:01:21;;;;;;;21.27;12.67;;;;;;;;;;5030096;28;20384;-47
2021/07/17 05:03:47;;;;;;;20.90;12.73;;;;;;;;;;5030426;28;20383;-47
2021/07/17 05:06:13;;;;;;;17.97;12.37;;;;;;;;;;5029866;28;20445;-47
2021/07/17 05:08:39;;;;;;;25.17;14.00;;;;;;;;;;5030194;28;20763;-48
2021/07/17 05:11:05;;;;;;;23.00;13.00;;;;;;;;;;5030035;28;20380;-48
2021/07/17 05:13:31;;;;;;;22.47;13.07;;;;;;;;;;5030323;28;20380;-48
2021/07/17 05:15:57;;;;;;;26.53;14.10;;;;;;;;;;5030073;28;20479;-47
2021/07/17 05:18:23;;;;;;;32.03;13.33;;;;;;;;;;5029971;28;20436;-47
2021/07/17 05:20:49;;;;;;;21.17;12.40;;;;;;;;;;5030038;28;20436;-49
2021/07/17 05:23:16;;;;;;;19.93;11.63;;;;;;;;;;5030348;28;20401;-47
2021/07/17 05:25:43;;;;;;;23.30;14.33;;;;;;;;;;5030061;28;20793;-47
2021/07/17 05:28:11;;;;;;;18.27;12.10;;;;;;;;;;5029993;28;20930;-48
2021/07/17 05:30:37;;;;;;;21.03;13.40;;;;;;;;;;5032853;28;20411;-47
2021/07/17 05:33:03;;;;;;;26.17;13.20;;;;;;;;;;5033821;28;20412;-47
2021/07/17 05:35:30;;;;;;;23.07;13.93;;;;;;;;;;5033505;28;20424;-46
2021/07/17 05:37:56;;;;;;;26.80;15.23;;;;;;;;;;5033579;28;20373;-47
2021/07/17 05:40:23;;;;;;;28.20;13.10;;;;;;;;;;5033332;28;20457;-48
2021/07/17 05:42:49;;;;;;;30.50;13.77;;;;;;;;;;5033387;28;20409;-47
2021/07/17 05:45:15;;;;;;;29.63;14.67;;;;;;;;;;5033415;28;20411;-48
2021/07/17 05:47:40;;;;;;;35.93;17.53;;;;;;;;;;5033308;28;20859;-46
2021/07/17 05:50:07;;;;;;;26.53;14.73;;;;;;;;;;5033249;28;20458;-47
2021/07/17 05:52:33;;;;;;;23.60;14.80;;;;;;;;;;5033581;28;20455;-47
2021/07/17 05:54:59;;;;;;;24.90;15.30;;;;;;;;;;5033359;28;20429;-47
2021/07/17 05:57:25;;;;;;;22.37;14.73;;;;;;;;;;5033347;28;20438;-48
2021/07/17 05:59:51;;;;;;;35.07;15.37;;;;;;;;;;5033153;28;20531;-47
2021/07/17 06:02:17;;;;;;;33.57;14.90;;;;;;;;;;5033114;28;20401;-47
2021/07/17 06:04:43;;;;;;;29.97;13.50;;;;;;;;;;5032914;28;20934;-48
2021/07/17 06:07:09;;;;;;;26.63;13.30;;;;;;;;;;5032887;28;20438;-47
2021/07/17 06:09:35;;;;;;;26.00;13.10;;;;;;;;;;5032769;28;20486;-48
2021/07/17 06:12:03;;;;;;;24.50;13.20;;;;;;;;;;5032991;28;20383;-47
2021/07/17 06:14:29;;;;;;;22.30;12.33;;;;;;;;;;5032791;28;20406;-47
2021/07/17 06:16:55;;;;;;;21.17;13.93;;;;;;;;;;5032835;28;20814;-49
2021/07/17 06:19:21;;;;;;;21.97;12.37;;;;;;;;;;5032507;28;20465;-47
2021/07/17 06:21:47;;;;;;;23.77;12.97;;;;;;;;;;5032721;28;20765;-48
2021/07/17 06:24:13;;;;;;;21.13;12.60;;;;;;;;;;5032475;28;20377;-49
2021/07/17 06:26:39;;;;;;;25.43;13.40;;;;;;;;;;5032628;28;20460;-47
2021/07/17 06:29:05;;;;;;;27.00;13.80;;;;;;;;;;5032428;28;20411;-47
2021/07/17 06:31:31;;;;;;;27.43;13.90;;;;;;;;;;5032505;28;20898;-49
2021/07/17 06:33:57;;;;;;;31.27;12.80;;;;;;;;;;5032469;28;20432;-47
2021/07/17 06:36:23;;;;;;;24.33;12.60;;;;;;;;;;5032303;28;20492;-48
2021/07/17 06:38:49;;;;;;;25.23;12.47;;;;;;;;;;5032271;28;20452;-47
2021/07/17 06:41:15;;;;;;;28.50;13.67;;;;;;;;;;5031142;28;20477;-47
2021/07/17 06:43:41;;;;;;;23.90;12.77;;;;;;;;;;5032230;28;20400;-47
2021/07/17 06:46:07;;;;;;;29.30;13.00;;;;;;;;;;5032136;28;20509;-48
2021/07/17 06:48:33;;;;;;;27.60;12.53;;;;;;;;;;5032057;28;20755;-48
2021/07/17 06:50:59;;;;;;;18.20;13.27;;;;;;;;;;5032423;28;20447;-48
2021/07/17 06:53:25;;;;;;;23.40;12.70;;;;;;;;;;5032037;28;20377;-47
2021/07/17 06:55:51;;;;;;;23.07;12.27;;;;;;;;;;5031530;28;20407;-48
2021/07/17 06:58:17;;;;;;;24.50;12.70;;;;;;;;;;5031893;28;20434;-47
2021/07/17 07:00:43;;;;;;;22.80;11.87;;;;;;;;;;5031682;28;20469;-47
2021/07/17 07:03:09;;;;;;;23.60;11.67;;;;;;;;;;5030654;28;20371;-47
2021/07/17 07:05:35;;;;;;;24.73;12.33;;;;;;;;;;5031155;28;20447;-47
2021/07/17 07:08:01;;;;;;;24.70;12.50;;;;;;;;;;5031219;28;20382;-48
2021/07/17 07:10:29;;;;;;;23.43;11.40;;;;;;;;;;5031326;28;20407;-48
2021/07/17 07:12:55;;;;;;;27.50;12.97;;;;;;;;;;5031381;28;20744;-47
2021/07/17 07:15:22;;;;;;;17.80;11.27;;;;;;;;;;5031625;28;20425;-47
2021/07/17 07:17:48;;;;;;;23.93;13.30;;;;;;;;;;5031623;28;20464;-47
2021/07/17 07:20:14;;;;;;;30.40;12.90;;;;;;;;;;5031115;28;20519;-49
2021/07/17 07:22:40;;;;;;;26.93;12.70;;;;;;;;;;5031807;28;20381;-47
2021/07/17 07:25:09;;;;;;;28.80;13.10;;;;;;;;;;5031503;28;20406;-47
2021/07/17 07:27:35;;;;;;;20.77;12.47;;;;;;;;;;5031354;28;20404;-48
2021/07/17 07:30:01;;;;;;;24.87;10.90;;;;;;;;;;5031251;28;20388;-47
2021/07/17 07:32:28;;;;;;;21.93;11.47;;;;;;;;;;5031412;28;20381;-47
2021/07/17 07:34:54;;;;;;;22.93;12.13;;;;;;;;;;5031216;28;20407;-46
2021/07/17 07:37:19;;;;;;;24.57;12.90;;;;;;;;;;5031420;28;20469;-47
2021/07/17 07:39:46;;;;;;;23.93;12.40;;;;;;;;;;5031206;28;20509;-47
2021/07/17 07:42:12;;;;;;;22.13;12.33;;;;;;;;;;5031542;28;20875;-47
2021/07/17 07:44:38;;;;;;;36.13;12.70;;;;;;;;;;5031388;28;20423;-47
2021/07/17 07:47:04;;;;;;;19.40;11.87;;;;;;;;;;5031460;28;20383;-47
2021/07/17 07:49:31;;;;;;;21.13;11.90;;;;;;;;;;5031171;28;20400;-47
2021/07/17 07:51:57;;;;;;;22.43;11.17;;;;;;;;;;5031000;28;21023;-48
2021/07/17 07:54:23;;;;;;;25.13;12.60;;;;;;;;;;5031046;28;20431;-47
2021/07/17 07:56:49;;;;;;;20.20;11.50;;;;;;;;;;5031024;28;20414;-46
2021/07/17 07:59:14;;;;;;;30.27;12.83;;;;;;;;;;5030892;28;20462;-46
2021/07/17 08:01:41;;;;;;;23.60;11.47;;;;;;;;;;5031099;28;20841;-47
2021/07/17 08:04:06;;;;;;;17.30;11.53;;;;;;;;;;5030787;28;20399;-47
2021/07/17 08:06:32;;;;;;;33.67;11.90;;;;;;;;;;5030772;28;20815;-48
2021/07/17 08:08:58;;;;;;;36.83;13.03;;;;;;;;;;5030976;28;20969;-47
2021/07/17 08:11:24;;;;;;;34.47;12.47;;;;;;;;;;5030670;28;20851;-47
2021/07/17 08:13:50;;;;;;;22.50;12.50;;;;;;;;;;5030876;28;20408;-47
2021/07/17 08:16:16;;;;;;;19.20;11.80;;;;;;;;;;5030577;28;20451;-48
2021/07/17 08:18:42;;;;;;;23.20;12.30;;;;;;;;;;5030530;28;20394;-46
2021/07/17 08:21:08;;;;;;;23.20;12.07;;;;;;;;;;5030534;28;20399;-48
2021/07/17 08:23:34;;;;;;;22.47;12.53;;;;;;;;;;5030958;28;20373;-48
2021/07/17 08:26:00;;;;;;;27.87;13.33;;;;;;;;;;5030440;28;20401;-47
2021/07/17 08:28:26;;;;;;;25.20;12.33;;;;;;;;;;5030624;28;20383;-48
2021/07/17 08:30:52;;;;;;;20.47;12.50;;;;;;;;;;5030303;28;20382;-47
2021/07/17 08:33:18;;;;;;;28.23;13.00;;;;;;;;;;5030544;28;20399;-48
2021/07/17 08:35:44;;;;;;;24.63;11.80;;;;;;;;;;5030314;28;20459;-47
2021/07/17 08:38:10;;;;;;;25.47;12.40;;;;;;;;;;5030655;28;20405;-48
2021/07/17 08:40:36;;;;;;;15.67;11.33;;;;;;;;;;5030180;28;20490;-47
2021/07/17 08:43:02;;;;;;;30.50;14.30;;;;;;;;;;5030504;28;20373;-48
2021/07/17 08:45:28;;;;;;;31.93;12.20;;;;;;;;;;5030253;28;20417;-47
2021/07/17 08:47:55;;;;;;;26.33;11.67;;;;;;;;;;5030380;28;20551;-49
2021/07/17 08:50:23;;;;;;;18.20;10.00;;;;;;;;;;5030481;28;20463;-48
2021/07/17 08:52:54;;;;;;;15.93;9.80;;;;;;;;;;5030442;28;20407;-49
2021/07/17 08:55:20;;;;;;;16.20;10.73;;;;;;;;;;5030146;28;20512;-47
2021/07/17 08:57:46;;;;;;;21.47;9.97;;;;;;;;;;5030405;28;20412;-48
2021/07/17 09:00:15;;;;;;;19.13;10.67;;;;;;;;;;5030022;28;20511;-48
2021/07/17 09:02:41;;;;;;;17.10;10.90;;;;;;;;;;5030308;28;20406;-47
2021/07/17 09:05:08;;;;;;;19.27;10.93;;;;;;;;;;5032349;28;20441;-48
2021/07/17 09:07:34;;;;;;;17.40;11.23;;;;;;;;;;5033934;28;20464;-49
2021/07/17 09:10:00;;;;;;;19.80;10.87;;;;;;;;;;5034015;28;20409;-47
2021/07/17 09:12:27;;;;;;;22.83;10.87;;;;;;;;;;5033911;28;20974;-48
2021/07/17 09:14:53;;;;;;;18.20;10.40;;;;;;;;;;5033827;28;20508;-49
2021/07/17 09:17:22;;;;;;;21.43;12.03;;;;;;;;;;5033820;28;20412;-48
2021/07/17 09:19:56;;;;;;;14.53;10.60;;;;;;;;;;5033672;28;20488;-49
2021/07/17 09:22:35;;;;;;;26.63;10.70;;;;;;;;;;5033805;28;20453;-47
2021/07/17 09:25:13;;;;;;;21.23;8.83;;;;;;;;;;5033819;28;20887;-49
2021/07/17 09:27:39;;;;;;;15.43;8.17;;;;;;;;;;5033721;28;20405;-48
2021/07/17 09:30:25;;;;;;;17.53;7.67;;;;;;;;;;5033548;28;20410;-47
2021/07/17 09:32:58;;;;;;;15.50;6.80;;;;;;;;;;5033521;28;20410;-49
2021/07/17 09:35:23;;;;;;;15.27;6.83;;;;;;;;;;5033520;28;20426;-48
2021/07/17 09:37:56;;;;;;;14.57;5.87;;;;;;;;;;5033537;28;20464;-48
2021/07/17 09:40:24;;;;;;;8.13;5.37;;;;;;;;;;5033535;28;20450;-48
2021/07/17 09:42:50;;;;;;;16.00;6.90;;;;;;;;;;5033589;28;20402;-48
2021/07/17 09:45:36;;;;;;;16.33;7.10;;;;;;;;;;5033447;28;20880;-48
2021/07/17 09:48:02;;;;;;;11.43;6.47;;;;;;;;;;5033355;28;20413;-49
2021/07/17 09:50:33;;;;;;;15.20;7.20;;;;;;;;;;5033212;28;20974;-49
2021/07/17 09:53:00;;;;;;;14.00;6.13;;;;;;;;;;5033431;28;20902;-48
2021/07/17 09:55:26;;;;;;;18.60;6.77;;;;;;;;;;5033218;28;20984;-49
2021/07/17 09:57:52;;;;;;;15.37;5.97;;;;;;;;;;5033123;28;20477;-49
2021/07/17 10:00:19;;;;;;;10.23;5.93;;;;;;;;;;5032949;28;20805;-49
2021/07/17 10:02:45;;;;;;;11.63;5.33;;;;;;;;;;5032952;28;20399;-48
2021/07/17 10:05:15;;;;;;;11.77;4.53;;;;;;;;;;5049647;22;20456;-55
2021/07/17 10:07:41;;;;;;;10.43;5.87;;;;;;;;;;5012165;28;20412;-56
2021/07/17 10:10:07;;;;;;;7.43;4.37;;;;;;;;;;5013102;28;20395;-56
2021/07/17 10:12:34;;;;;;;9.60;4.50;;;;;;;;;;5013069;28;20892;-56
2021/07/17 10:15:00;;;;;;;9.70;4.13;;;;;;;;;;5012838;28;20403;-55
2021/07/17 10:17:36;;;;;;;12.07;4.80;;;;;;;;;;5011921;28;20486;-55
2021/07/17 10:20:04;;;;;;;11.73;5.03;;;;;;;;;;5011501;28;20528;-56
2021/07/17 10:22:31;;;;;;;14.57;5.10;;;;;;;;;;5012666;28;20419;-56
2021/07/17 10:24:58;;;;;;;7.57;4.67;;;;;;;;;;5012775;28;20888;-55
2021/07/17 10:27:25;;;;;;;8.93;4.20;;;;;;;;;;5012667;28;20442;-55
2021/07/17 10:29:51;;;;;;;10.33;4.63;;;;;;;;;;5012483;28;20411;-56
2021/07/17 10:32:18;;;;;;;13.20;4.50;;;;;;;;;;5012408;28;20435;-55
2021/07/17 10:34:45;;;;;;;13.10;5.20;;;;;;;;;;5012777;28;20403;-55
2021/07/17 10:37:14;;;;;;;13.13;4.73;;;;;;;;;;5012534;28;20429;-55
2021/07/17 10:39:44;;;;;;;8.60;4.80;;;;;;;;;;5012227;28;20451;-55
2021/07/17 10:42:16;;;;;;;10.07;4.53;;;;;;;;;;5012497;28;20498;-55
2021/07/17 10:44:43;;;;;;;10.30;4.97;;;;;;;;;;5012263;28;20413;-55
2021/07/17 10:47:09;;;;;;;6.53;4.20;;;;;;;;;;5012247;28;20427;-55
2021/07/17 10:49:36;;;;;;;8.53;3.60;;;;;;;;;;5011871;28;20820;-55
2021/07/17 10:52:03;;;;;;;12.13;9.53;;;;;;;;;;5012345;28;20403;-56
2021/07/17 10:54:30;;;;;;;9.03;4.30;;;;;;;;;;5011301;28;20727;-56
2021/07/17 10:56:57;;;;;;;14.10;4.37;;;;;;;;;;5012152;28;20427;-56
2021/07/17 10:59:23;;;;;;;8.63;3.97;;;;;;;;;;5011641;28;20931;-56
2021/07/17 11:01:58;;;;;;;9.60;3.30;;;;;;;;;;5012182;28;20414;-55
2021/07/17 11:04:37;;;;;;;8.33;3.60;;;;;;;;;;5012224;28;20199;-55
2021/07/17 11:07:18;;;;;;;4.97;3.53;;;;;;;;;;5011904;28;20442;-56
2021/07/17 11:09:50;;;;;;;7.00;3.70;;;;;;;;;;5011575;28;20502;-56
2021/07/17 11:12:20;;;;;;;6.93;3.07;;;;;;;;;;5011955;28;20430;-55
2021/07/17 11:14:47;;;;;;;4.27;3.30;;;;;;;;;;5011711;28;20927;-55
2021/07/17 11:17:13;;;;;;;6.97;3.27;;;;;;;;;;5011861;28;20458;-55
2021/07/17 11:19:39;;;;;;;7.77;3.10;;;;;;;;;;5011926;28;20533;-55
2021/07/17 11:22:12;;;;;;;13.80;2.97;;;;;;;;;;5012107;28;20414;-55
2021/07/17 11:24:38;;;;;;;3.43;2.67;;;;;;;;;;5012057;28;20453;-55
2021/07/17 11:27:14;;;;;;;8.97;2.97;;;;;;;;;;5011132;28;20431;-55
2021/07/17 11:29:41;;;;;;;5.50;3.13;;;;;;;;;;5011632;28;20399;-55
2021/07/17 11:32:10;;;;;;;5.30;2.90;;;;;;;;;;5011623;28;20407;-55
2021/07/17 11:34:40;;;;;;;12.33;3.00;;;;;;;;;;5011588;28;20404;-56
2021/07/17 11:37:07;;;;;;;2.80;2.30;;;;;;;;;;5011240;28;20431;-56
2021/07/17 11:39:34;;;;;;;6.40;2.90;;;;;;;;;;5011426;28;20486;-56
2021/07/17 11:42:03;;;;;;;5.20;2.90;;;;;;;;;;5011514;28;20415;-56
2021/07/17 11:44:30;;;;;;;6.00;3.27;;;;;;;;;;5011328;28;20906;-56
2021/07/17 11:46:57;;;;;;;6.67;2.87;;;;;;;;;;5011166;28;20462;-56
2021/07/17 11:49:34;;;;;;;6.77;2.20;;;;;;;;;;5011073;28;20407;-56
2021/07/17 11:52:02;;;;;;;3.50;2.60;;;;;;;;;;5011273;28;20931;-56
2021/07/17 11:54:35;;;;;;;4.70;2.67;;;;;;;;;;5011285;28;20768;-55
2021/07/17 11:57:02;;;;;;;10.70;2.97;;;;;;;;;;5011061;28;20423;-56
2021/07/17 11:59:28;;;;;;;4.27;2.30;;;;;;;;;;5010963;28;20958;-56
2021/07/17 12:02:11;;;;;;;4.30;2.10;;;;;;;;;;5011055;28;20403;-55
2021/07/17 12:04:44;;;;;;;5.43;2.27;;;;;;;;;;5011349;28;20391;-56
2021/07/17 12:07:12;;;;;;;6.73;2.40;;;;;;;;;;5010835;28;20445;-56
2021/07/17 12:09:43;;;;;;;6.67;2.27;;;;;;;;;;5011054;28;20419;-55
2021/07/17 12:12:16;;;;;;;6.40;2.30;;;;;;;;;;5010925;28;20406;-55
2021/07/17 12:14:42;;;;;;;3.60;2.30;;;;;;;;;;5011031;28;20415;-55
2021/07/17 12:17:08;;;;;;;2.23;2.07;;;;;;;;;;5010819;28;20431;-55
2021/07/17 12:19:34;;;;;;;3.93;2.27;;;;;;;;;;5010606;28;20454;-55
2021/07/17 12:22:00;;;;;;;4.90;2.10;;;;;;;;;;5010948;28;20396;-55
2021/07/17 12:24:26;;;;;;;4.50;2.47;;;;;;;;;;5010824;28;20457;-55
2021/07/17 12:27:07;;;;;;;3.97;2.30;;;;;;;;;;5010622;28;20442;-55
2021/07/17 12:29:35;;;;;;;5.30;2.03;;;;;;;;;;5009912;28;20505;-55
2021/07/17 12:32:02;;;;;;;7.20;2.67;;;;;;;;;;5010697;28;20423;-56
2021/07/17 12:34:28;;;;;;;3.43;2.50;;;;;;;;;;5010614;28;20770;-55
2021/07/17 12:36:54;;;;;;;2.90;2.10;;;;;;;;;;5009777;28;20427;-55
2021/07/17 12:39:21;;;;;;;5.07;2.37;;;;;;;;;;5012393;28;20480;-55
2021/07/17 12:41:49;;;;;;;3.23;2.67;;;;;;;;;;5014702;28;20884;-55
2021/07/17 12:44:15;;;;;;;3.77;2.10;;;;;;;;;;5014681;28;20406;-55
2021/07/17 12:46:48;;;;;;;4.67;2.40;;;;;;;;;;5013593;28;20441;-55
2021/07/17 12:49:21;;;;;;;6.60;2.37;;;;;;;;;;5006594;28;20899;-55
2021/07/17 12:51:47;;;;;;;6.40;2.57;;;;;;;;;;5014432;28;20465;-55
2021/07/17 12:54:14;;;;;;;2.90;1.90;;;;;;;;;;5014720;28;20422;-56
2021/07/17 12:56:53;;;;;;;4.00;2.63;;;;;;;;;;5014411;28;20427;-55
2021/07/17 12:59:21;;;;;;;6.93;3.30;;;;;;;;;;5014149;28;20446;-55
2021/07/17 13:01:47;;;;;;;7.13;2.87;;;;;;;;;;5014143;28;20406;-55
2021/07/17 13:04:14;;;;;;;9.83;2.37;;;;;;;;;;5014360;28;20399;-55
2021/07/17 13:06:40;;;;;;;3.77;2.47;;;;;;;;;;5014078;28;20434;-55
2021/07/17 13:09:06;;;;;;;7.20;2.40;;;;;;;;;;5014190;28;20502;-55
2021/07/17 13:11:32;;;;;;;3.33;2.00;;;;;;;;;;5014325;28;20399;-55
2021/07/17 13:13:59;;;;;;;5.43;2.17;;;;;;;;;;5012465;28;20407;-55
2021/07/17 13:16:26;;;;;;;6.13;2.20;;;;;;;;;;5012398;28;20434;-55
2021/07/17 13:18:53;;;;;;;5.40;2.00;;;;;;;;;;5012437;28;20430;-55
2021/07/17 13:21:19;;;;;;;5.40;2.30;;;;;;;;;;5014051;28;20403;-55
2021/07/17 13:23:57;;;;;;;4.23;1.90;;;;;;;;;;5013560;28;20544;-55
2021/07/17 13:26:23;;;;;;;6.23;2.10;;;;;;;;;;5013232;28;20872;-55
2021/07/17 13:28:49;;;;;;;3.20;2.40;;;;;;;;;;5013780;28;20403;-55
2021/07/17 13:31:17;;;;;;;5.03;2.10;;;;;;;;;;5012959;28;20544;-55
2021/07/17 13:33:43;;;;;;;3.63;2.00;;;;;;;;;;5012523;28;20399;-55
2021/07/17 13:36:09;;;;;;;3.70;2.10;;;;;;;;;;5013626;28;20430;-55
2021/07/17 13:38:36;;;;;;;3.73;2.27;;;;;;;;;;5013663;28;20411;-55
2021/07/17 13:41:09;;;;;;;6.83;1.97;;;;;;;;;;5013417;28;20505;-55
2021/07/17 13:43:36;;;;;;;6.47;2.10;;;;;;;;;;5013503;28;20484;-55
2021/07/17 13:46:03;;;;;;;4.07;1.73;;;;;;;;;;5013133;28;20419;-55
2021/07/17 13:48:28;;;;;;;3.67;2.03;;;;;;;;;;5013219;28;20438;-55
2021/07/17 13:51:03;;;;;;;3.43;2.20;;;;;;;;;;5012769;28;20900;-55
2021/07/17 13:53:29;;;;;;;3.63;2.23;;;;;;;;;;5013340;28;20963;-55
2021/07/17 13:56:04;;;;;;;2.40;1.60;;;;;;;;;;5013245;28;20517;-55
2021/07/17 13:58:30;;;;;;;3.57;1.97;;;;;;;;;;5013272;28;20172;-55
2021/07/17 14:00:57;;;;;;;3.40;1.87;;;;;;;;;;5012916;28;20472;-55
2021/07/17 14:03:27;;;;;;;2.70;2.13;;;;;;;;;;5012738;28;20831;-55
2021/07/17 14:05:54;;;;;;;3.73;2.20;;;;;;;;;;5012221;28;20439;-55
2021/07/17 14:08:20;;;;;;;2.40;1.97;;;;;;;;;;5013082;28;20407;-55
2021/07/17 14:10:46;;;;;;;5.33;1.90;;;;;;;;;;5012913;28;20453;-54
2021/07/17 14:13:13;;;;;;;4.43;1.93;;;;;;;;;;5013013;28;20403;-55
2021/07/17 14:15:39;;;;;;;1.97;1.80;;;;;;;;;;5013114;28;20469;-55
2021/07/17 14:18:05;;;;;;;3.93;1.97;;;;;;;;;;5012927;28;20407;-55
2021/07/17 14:20:31;;;;;;;4.67;2.37;;;;;;;;;;5012758;28;20537;-54
2021/07/17 14:22:57;;;;;;;3.03;2.00;;;;;;;;;;5012863;28;20482;-55
2021/07/17 14:25:23;;;;;;;4.20;2.10;;;;;;;;;;5012747;28;20427;-55